Time;durP1;ratioP1;P1;durP2;ratioP2;P2;SDS_P1;SDS_P2;PMS_P1;PMS_P2;Temp;Humidity;BMP_temperature;BMP_pressure;BME280_temperature;BME280_humidity;BME280_pressure;Samples;Min_cycle;Max_cycle;Signal;HPM_P1;HPM_P2
2022/07/25 00:00:52;;;;;;;15.15;11.27;;;;;;;27.62;47.66;95313.78;5083845;28;20446;-84
2022/07/25 00:03:18;;;;;;;20.35;11.93;;;;;;;27.49;47.71;95322.59;5084218;28;20043;-85
2022/07/25 00:05:43;;;;;;;13.93;11.30;;;;;;;27.18;47.75;95272.19;5081376;28;20548;-85
2022/07/25 00:08:09;;;;;;;15.07;11.27;;;;;;;27.15;48.02;95272.94;5084013;28;20484;-85
2022/07/25 00:10:34;;;;;;;16.27;11.48;;;;;;;27.16;47.84;95271.75;5082008;28;20501;-84
2022/07/25 00:13:00;;;;;;;14.75;10.77;;;;;;;27.39;47.52;95282.47;5081356;28;20564;-85
2022/07/25 00:15:25;;;;;;;14.95;10.02;;;;;;;27.47;47.15;95287.56;5083296;28;20085;-85
2022/07/25 00:17:51;;;;;;;14.27;10.90;;;;;;;27.26;47.40;95247.34;5082012;28;20028;-85
2022/07/25 00:20:17;;;;;;;13.85;11.35;;;;;;;26.91;48.24;95249.81;5081470;28;20551;-85
2022/07/25 00:22:42;;;;;;;16.17;11.55;;;;;;;27.46;47.93;95310.53;5082306;28;20071;-85
2022/07/25 00:25:08;;;;;;;15.80;11.07;;;;;;;27.48;48.17;95307.41;5081811;28;20044;-85
2022/07/25 00:27:34;;;;;;;16.23;11.10;;;;;;;27.41;47.74;95291.03;5083011;28;20040;-85
2022/07/25 00:29:59;;;;;;;19.88;10.77;;;;;;;27.14;48.26;95280.34;5083557;28;20255;-85
2022/07/25 00:32:24;;;;;;;16.95;11.02;;;;;;;26.60;47.99;95236.66;5081742;28;20034;-84
2022/07/25 00:34:50;;;;;;;14.10;11.05;;;;;;;26.82;48.10;95263.69;5081794;28;20126;-85
2022/07/25 00:37:16;;;;;;;16.17;10.88;;;;;;;26.69;47.71;95221.59;5086002;28;20098;-85
2022/07/25 00:39:41;;;;;;;16.17;11.38;;;;;;;26.92;48.00;95239.72;5085507;28;20040;-85
2022/07/25 00:42:06;;;;;;;12.32;10.80;;;;;;;26.96;47.81;95251.41;5103386;28;20075;-85
2022/07/25 00:44:32;;;;;;;12.05;10.77;;;;;;;26.41;47.40;95150.63;5085074;28;20035;-85
2022/07/25 00:46:58;;;;;;;13.35;10.00;;;;;;;26.63;46.68;95181.50;5084845;28;20039;-85
2022/07/25 00:49:24;;;;;;;13.20;11.05;;;;;;;27.09;46.59;95245.28;5102840;28;20050;-85
2022/07/25 00:51:51;;;;;;;13.80;10.13;;;;;;;26.84;46.77;95226.03;5103994;28;20039;-85
2022/07/25 00:54:16;;;;;;;20.98;10.15;;;;;;;26.36;46.98;95183.59;5085122;28;20039;-85
2022/07/25 00:56:42;;;;;;;13.18;9.85;;;;;;;26.52;47.22;95214.06;5085481;28;20031;-85
2022/07/25 00:59:09;;;;;;;12.63;10.50;;;;;;;26.14;47.32;95160.84;5085088;28;20040;-85
2022/07/25 01:01:35;;;;;;;14.60;10.70;;;;;;;26.52;47.93;95249.41;5085131;28;20084;-85
2022/07/25 01:04:02;;;;;;;21.50;10.45;;;;;;;26.24;47.80;95211.03;5084886;28;20843;-85
2022/07/25 01:06:27;;;;;;;14.48;10.52;;;;;;;26.55;47.50;95243.22;5084378;28;20513;-85
2022/07/25 01:08:54;;;;;;;15.35;10.18;;;;;;;26.58;48.08;95258.00;5103425;28;20043;-85
2022/07/25 01:11:21;;;;;;;13.75;9.95;;;;;;;26.16;47.85;95206.69;5102971;28;20071;-85
2022/07/25 01:13:46;;;;;;;14.15;10.48;;;;;;;26.69;47.46;95272.50;5084922;28;20046;-85
2022/07/25 01:16:11;;;;;;;12.63;9.63;;;;;;;26.07;47.91;95187.94;5084195;28;20031;-85
2022/07/25 01:18:37;;;;;;;12.73;10.57;;;;;;;26.43;48.06;95257.09;5084003;28;20494;-84
2022/07/25 01:21:03;;;;;;;18.73;10.15;;;;;;;26.68;48.08;95251.91;5084644;28;20023;-85
2022/07/25 01:23:28;;;;;;;17.02;10.05;;;;;;;26.89;47.68;95273.84;5103665;28;20485;-85
2022/07/25 01:25:54;;;;;;;12.18;10.25;;;;;;;26.66;47.57;95263.16;5083945;28;20127;-86
2022/07/25 01:28:20;;;;;;;17.10;10.55;;;;;;;26.39;47.97;95229.09;5083880;28;20036;-85
2022/07/25 01:30:45;;;;;;;13.00;9.90;;;;;;;26.46;47.83;95232.66;5084392;28;20095;-85
2022/07/25 01:33:15;;;;;;;17.25;10.07;;;;;;;26.78;47.92;95273.75;5084536;28;20492;-85
2022/07/25 01:35:41;;;;;;;16.73;10.93;;;;;;;26.84;48.38;95269.56;5084365;28;20046;-85
2022/07/25 01:38:07;;;;;;;16.50;10.73;;;;;;;26.38;48.61;95214.72;5102660;28;20065;-85
2022/07/25 01:40:32;;;;;;;16.10;10.38;;;;;;;26.32;47.96;95178.13;5084989;28;20043;-85
2022/07/25 01:42:58;;;;;;;15.02;10.88;;;;;;;26.63;48.40;95233.97;5084906;28;20043;-85
2022/07/25 01:45:23;;;;;;;15.30;10.93;;;;;;;26.37;48.29;95171.56;5085086;28;20224;-85
2022/07/25 01:47:48;;;;;;;14.82;10.75;;;;;;;26.37;48.03;95174.28;5084245;28;20061;-85
2022/07/25 01:50:14;;;;;;;14.13;10.18;;;;;;;26.68;48.23;95221.97;5084933;28;20339;-86
2022/07/25 01:52:41;;;;;;;15.25;11.40;;;;;;;27.01;48.68;95291.84;5082176;28;20054;-86
2022/07/25 01:55:08;;;;;;;20.75;11.50;;;;;;;26.44;48.49;95196.91;5102729;28;20516;-86
2022/07/25 01:57:33;;;;;;;12.70;10.77;;;;;;;26.82;48.88;95281.97;5065291;28;20051;-85
2022/07/25 01:59:59;;;;;;;17.75;11.40;;;;;;;26.47;49.05;95226.03;5082299;28;20517;-85
2022/07/25 02:02:25;;;;;;;15.05;11.43;;;;;;;26.96;49.21;95303.09;5083017;28;20036;-84
2022/07/25 02:04:50;;;;;;;15.80;10.48;;;;;;;26.78;48.71;95265.59;5081950;28;20069;-85
2022/07/25 02:07:15;;;;;;;14.27;11.15;;;;;;;26.40;48.66;95214.31;5100959;28;20117;-85
2022/07/25 02:09:41;;;;;;;13.48;10.73;;;;;;;26.83;49.15;95294.41;5101207;28;20038;-86
2022/07/25 02:12:07;;;;;;;15.52;10.57;;;;;;;26.40;49.64;95233.34;5082140;28;20066;-85
2022/07/25 02:14:32;;;;;;;12.75;10.98;;;;;;;26.67;49.14;95266.66;5081639;28;20035;-85
2022/07/25 02:16:58;;;;;;;14.57;10.55;;;;;;;26.76;49.37;95275.28;5081706;28;20058;-85
2022/07/25 02:19:23;;;;;;;16.38;11.07;;;;;;;26.31;49.07;95208.41;5099452;28;20128;-85
2022/07/25 02:21:49;;;;;;;17.15;11.07;;;;;;;26.49;49.38;95255.59;5081099;28;20130;-86
2022/07/25 02:24:14;;;;;;;16.58;11.27;;;;;;;26.29;49.86;95224.31;5080455;28;20046;-85
2022/07/25 02:26:40;;;;;;;18.90;10.85;;;;;;;26.02;50.18;95201.84;5081558;28;20040;-85
2022/07/25 02:29:05;;;;;;;16.80;11.35;;;;;;;26.65;49.87;95290.72;5083513;28;20104;-86
2022/07/25 02:31:31;;;;;;;17.35;11.57;;;;;;;26.71;50.03;95300.09;5103853;28;20035;-85
2022/07/25 02:33:56;;;;;;;14.75;11.15;;;;;;;26.49;50.14;95282.78;5085573;28;20448;-85
2022/07/25 02:36:22;;;;;;;13.20;11.13;;;;;;;26.55;50.64;95292.16;5103926;28;20035;-86
2022/07/25 02:38:47;;;;;;;13.95;10.60;;;;;;;25.81;50.46;95193.44;5103371;28;20047;-85
2022/07/25 02:41:13;;;;;;;16.42;11.40;;;;;;;25.78;50.25;95181.41;5085014;28;20497;-85
2022/07/25 02:43:38;;;;;;;16.08;11.73;;;;;;;26.10;49.65;95239.59;5103407;28;20092;-85
2022/07/25 02:46:04;;;;;;;17.30;10.68;;;;;;;25.82;49.93;95200.44;5085168;28;20048;-86
2022/07/25 02:48:29;;;;;;;12.27;10.98;;;;;;;26.27;49.96;95279.03;5084636;28;20504;-85
2022/07/25 02:50:54;;;;;;;16.13;10.93;;;;;;;26.34;50.46;95295.44;5084694;28;20031;-85
2022/07/25 02:53:20;;;;;;;12.40;10.68;;;;;;;25.94;50.30;95225.44;5085033;28;20036;-85
2022/07/25 02:55:45;;;;;;;15.18;10.70;;;;;;;25.94;50.47;95241.72;5083801;28;20042;-85
2022/07/25 02:58:11;;;;;;;13.40;11.65;;;;;;;25.56;50.65;95177.59;5103466;28;20035;-85
2022/07/25 03:00:36;;;;;;;18.67;12.02;;;;;;;25.49;50.77;95172.06;5103637;28;20028;-85
2022/07/25 03:03:02;;;;;;;17.50;12.15;;;;;;;26.02;51.35;95283.38;5085066;28;20059;-85
2022/07/25 03:05:27;;;;;;;21.52;11.48;;;;;;;25.90;50.96;95275.47;5085319;28;20092;-85
2022/07/25 03:07:53;;;;;;;15.65;11.88;;;;;;;26.00;51.31;95296.56;5103764;28;20125;-85
2022/07/25 03:10:18;;;;;;;21.52;12.05;;;;;;;25.84;51.29;95266.06;5086101;28;20065;-85
2022/07/25 03:12:44;;;;;;;14.90;11.60;;;;;;;25.19;51.49;95184.84;5087710;28;20050;-85
2022/07/25 03:15:11;;;;;;;13.75;11.55;;;;;;;25.05;51.59;95214.50;5086535;28;20035;-85
2022/07/25 03:17:37;;;;;;;17.13;11.20;;;;;;;25.54;51.66;95307.53;5104269;28;20163;-85
2022/07/25 03:20:05;;;;;;;16.30;11.73;;;;;;;24.31;52.19;95141.63;5103696;28;20151;-85
2022/07/25 03:22:30;;;;;;;21.90;11.35;;;;;;;24.88;53.21;95253.72;5084435;28;20072;-85
2022/07/25 03:24:56;;;;;;;13.27;11.32;;;;;;;24.54;52.58;95214.81;5102952;28;20375;-85
2022/07/25 03:27:21;;;;;;;20.77;11.80;;;;;;;24.79;52.37;95264.06;5084089;28;20031;-85
2022/07/25 03:29:47;;;;;;;16.15;11.98;;;;;;;24.44;52.39;95194.50;5083644;28;20023;-85
2022/07/25 03:32:12;;;;;;;16.33;11.80;;;;;;;23.78;52.67;95122.47;5083540;28;20040;-85
2022/07/25 03:34:38;;;;;;;19.38;12.35;;;;;;;24.69;52.64;95246.44;5102929;28;20460;-85
2022/07/25 03:37:04;;;;;;;19.23;11.43;;;;;;;25.25;51.88;95314.44;5103309;28;20046;-85
2022/07/25 03:39:30;;;;;;;17.10;10.82;;;;;;;25.00;52.00;95299.69;5083165;28;20130;-85
2022/07/25 03:41:56;;;;;;;18.75;10.98;;;;;;;24.18;52.14;95207.94;5102206;28;20036;-86
2022/07/25 03:44:22;;;;;;;19.58;11.10;;;;;;;24.57;52.25;95244.69;5084312;28;20038;-86
2022/07/25 03:46:48;;;;;;;17.50;11.18;;;;;;;24.42;52.91;95280.81;5084051;28;20119;-85
2022/07/25 03:49:13;;;;;;;17.10;11.15;;;;;;;23.91;52.37;95174.53;5084377;28;20425;-85
2022/07/25 03:51:39;;;;;;;18.48;11.50;;;;;;;24.45;52.51;95242.16;5083849;28;20039;-84
2022/07/25 03:54:05;;;;;;;19.67;10.98;;;;;;;24.65;51.92;95275.41;5083306;28;20146;-85
2022/07/25 03:56:36;;;;;;;20.50;11.60;;;;;;;23.15;52.06;95061.63;5084139;28;20043;-84
2022/07/25 03:59:03;;;;;;;16.52;10.98;;;;;;;24.87;51.79;95315.31;5082534;28;20031;-84
2022/07/25 04:01:28;;;;;;;18.70;10.43;;;;;;;24.58;52.15;95284.22;5095941;28;20035;-85
2022/07/25 04:03:54;;;;;;;19.13;11.50;;;;;;;24.20;52.27;95240.91;5083445;28;20100;-85
2022/07/25 04:06:19;;;;;;;15.65;10.02;;;;;;;24.01;52.88;95262.56;5102393;28;20031;-85
2022/07/25 04:08:45;;;;;;;16.50;11.57;;;;;;;24.19;53.24;95317.88;5084197;28;20466;-85
2022/07/25 04:11:11;;;;;;;16.90;10.93;;;;;;;23.70;53.32;95247.22;5102928;28;20122;-85
2022/07/25 04:13:36;;;;;;;15.45;11.48;;;;;;;23.68;52.92;95215.09;5083698;28;20027;-85
2022/07/25 04:16:02;;;;;;;17.33;11.65;;;;;;;24.22;52.25;95263.78;5103021;28;20497;-85
2022/07/25 04:18:27;;;;;;;18.13;10.80;;;;;;;23.80;52.55;95212.22;5084173;28;20126;-85
2022/07/25 04:20:53;;;;;;;17.77;10.45;;;;;;;23.90;52.20;95204.69;5083629;28;20039;-85
2022/07/25 04:23:18;;;;;;;15.18;10.32;;;;;;;23.63;52.51;95209.97;5084079;28;20092;-85
2022/07/25 04:25:43;;;;;;;19.85;11.32;;;;;;;24.47;52.07;95309.56;5083780;28;20039;-85
2022/07/25 04:28:09;;;;;;;14.05;9.90;;;;;;;23.67;51.75;95191.84;5083700;28;20502;-85
2022/07/25 04:30:34;;;;;;;18.80;10.90;;;;;;;23.93;51.62;95206.69;5083998;28;20042;-85
2022/07/25 04:33:00;;;;;;;20.08;9.88;;;;;;;24.09;51.92;95256.16;5102440;28;20561;-86
2022/07/25 04:35:25;;;;;;;18.48;9.77;;;;;;;24.04;51.31;95229.31;5083323;28;20051;-86
2022/07/25 04:37:51;;;;;;;14.70;9.98;;;;;;;24.64;50.79;95313.75;5083995;28;20059;-85
2022/07/25 04:40:16;;;;;;;14.38;10.00;;;;;;;21.79;51.35;94911.19;5084678;28;20059;-84
2022/07/25 04:42:42;;;;;;;13.85;10.13;;;;;;;24.06;50.87;95230.53;5084216;28;20039;-84
2022/07/25 04:45:08;;;;;;;14.95;9.82;;;;;;;22.88;51.14;95088.53;5080768;28;20085;-85
2022/07/25 04:47:33;;;;;;;16.48;10.05;;;;;;;23.92;51.40;95287.16;5080035;28;20037;-85
2022/07/25 04:49:59;;;;;;;19.63;9.50;;;;;;;22.42;51.38;95068.53;5082667;28;20032;-84
2022/07/25 04:52:25;;;;;;;12.32;9.80;;;;;;;23.87;52.11;95297.50;5102214;28;20112;-84
2022/07/25 04:54:51;;;;;;;13.23;9.60;;;;;;;24.06;51.37;95287.44;5101645;28;20057;-84
2022/07/25 04:57:16;;;;;;;11.80;9.70;;;;;;;24.09;51.96;95302.22;5081344;28;20035;-85
2022/07/25 04:59:43;;;;;;;11.85;10.27;;;;;;;22.28;51.61;95020.34;5082886;28;20039;-85
2022/07/25 05:02:08;;;;;;;12.63;9.13;;;;;;;24.21;51.55;95291.25;5102093;28;20106;-85
2022/07/25 05:04:34;;;;;;;17.92;9.30;;;;;;;24.09;51.40;95261.56;5082511;28;20227;-85
2022/07/25 05:06:59;;;;;;;12.88;9.50;;;;;;;24.40;50.80;95315.63;5081474;28;20425;-85
2022/07/25 05:09:26;;;;;;;12.15;9.32;;;;;;;24.15;50.69;95266.34;5083051;28;20440;-85
2022/07/25 05:11:52;;;;;;;15.13;10.57;;;;;;;24.35;50.43;95309.69;5083116;28;20066;-85
2022/07/25 05:14:18;;;;;;;14.35;9.35;;;;;;;24.18;50.41;95262.91;5082944;28;20031;-85
2022/07/25 05:16:43;;;;;;;16.38;8.68;;;;;;;24.10;50.18;95236.84;5101457;28;20044;-85
2022/07/25 05:19:09;;;;;;;14.57;10.32;;;;;;;24.00;50.04;95199.47;5083131;28;20466;-85
2022/07/25 05:21:34;;;;;;;12.48;9.07;;;;;;;24.16;49.60;95246.22;5082877;28;20047;-85
2022/07/25 05:24:00;;;;;;;17.17;10.32;;;;;;;24.56;49.77;95297.34;5082942;28;20618;-85
2022/07/25 05:26:25;;;;;;;10.95;8.55;;;;;;;23.84;49.52;95220.44;5082714;28;20028;-85
2022/07/25 05:28:50;;;;;;;16.10;9.50;;;;;;;24.28;49.64;95307.63;5081495;28;20092;-85
2022/07/25 05:31:16;;;;;;;12.90;8.80;;;;;;;23.91;49.51;95236.03;5101578;28;20055;-85
2022/07/25 05:33:41;;;;;;;18.95;9.05;;;;;;;23.79;50.11;95218.81;5082390;28;20035;-85
2022/07/25 05:36:07;;;;;;;12.23;9.48;;;;;;;24.18;50.38;95284.56;5100448;28;20481;-85
2022/07/25 05:38:33;;;;;;;15.43;9.68;;;;;;;24.54;50.13;95318.63;5080831;28;20052;-85
2022/07/25 05:40:59;;;;;;;13.38;9.90;;;;;;;24.54;49.90;95305.06;5081022;28;20523;-85
2022/07/25 05:43:24;;;;;;;12.23;8.27;;;;;;;24.05;49.22;95220.06;5079346;28;20032;-85
2022/07/25 05:45:50;;;;;;;12.70;8.48;;;;;;;24.45;49.50;95247.56;5078452;28;20034;-85
2022/07/25 05:48:16;;;;;;;14.73;8.98;;;;;;;24.21;49.22;95204.53;5097887;28;20037;-85
2022/07/25 05:50:42;;;;;;;17.00;9.55;;;;;;;24.49;49.14;95234.84;5079808;28;20060;-85
2022/07/25 05:53:07;;;;;;;33.20;9.45;;;;;;;24.31;49.01;95201.25;5079992;28;20127;-85
2022/07/25 05:55:33;;;;;;;10.57;8.52;;;;;;;24.85;48.60;95293.22;5081137;28;20417;-85
2022/07/25 05:57:58;;;;;;;11.15;8.40;;;;;;;24.17;48.91;95184.69;5098473;28;20483;-85
2022/07/25 06:00:24;;;;;;;17.35;9.10;;;;;;;24.91;48.94;95307.28;5079586;28;20031;-84
2022/07/25 06:02:50;;;;;;;11.45;8.10;;;;;;;24.81;49.23;95280.72;5081594;28;20036;-85
2022/07/25 06:05:15;;;;;;;13.75;7.93;;;;;;;24.41;49.09;95222.31;5100309;28;20493;-85
2022/07/25 06:07:40;;;;;;;13.15;8.85;;;;;;;24.70;48.55;95274.34;5080815;28;20066;-86
2022/07/25 06:10:07;;;;;;;13.30;8.98;;;;;;;24.45;48.01;95239.44;5080725;28;20063;-85
2022/07/25 06:12:32;;;;;;;10.80;8.15;;;;;;;24.30;48.05;95198.88;5100043;28;20042;-85
2022/07/25 06:15:01;;;;;;;17.48;7.75;;;;;;;24.13;48.04;95194.69;5100873;28;20032;-85
2022/07/25 06:17:26;;;;;;;15.18;7.68;;;;;;;24.82;47.71;95288.50;5099707;28;20095;-84
2022/07/25 06:19:52;;;;;;;14.40;8.65;;;;;;;24.68;47.88;95255.72;5099549;28;20039;-85
2022/07/25 06:22:20;;;;;;;12.38;8.95;;;;;;;24.00;48.32;95185.94;5100357;28;20031;-85
2022/07/25 06:24:45;;;;;;;15.65;8.68;;;;;;;24.58;48.23;95278.00;5082503;28;20035;-84
2022/07/25 06:27:11;;;;;;;14.30;8.23;;;;;;;24.41;47.99;95229.69;5096589;28;20425;-85
2022/07/25 06:29:37;;;;;;;9.30;7.78;;;;;;;24.54;48.24;95241.91;5094794;28;20057;-86
2022/07/25 06:32:03;;;;;;;14.05;8.60;;;;;;;24.07;48.10;95177.16;5081578;28;20027;-84
2022/07/25 06:34:28;;;;;;;11.73;8.60;;;;;;;24.48;48.09;95221.69;5081382;28;20456;-85
2022/07/25 06:36:54;;;;;;;10.57;8.88;;;;;;;24.36;47.61;95209.06;5081948;28;20145;-85
2022/07/25 06:39:19;;;;;;;12.75;8.90;;;;;;;24.22;48.38;95170.88;5081964;28;20060;-84
2022/07/25 06:41:44;;;;;;;13.18;8.70;;;;;;;24.69;47.78;95218.53;5081829;28;20880;-84
2022/07/25 06:44:10;;;;;;;12.43;9.15;;;;;;;24.70;47.93;95211.97;5099427;28;20043;-85
2022/07/25 06:46:35;;;;;;;15.10;8.40;;;;;;;25.30;47.51;95302.50;5081329;28;20032;-86
2022/07/25 06:49:01;;;;;;;12.35;8.88;;;;;;;25.29;47.39;95279.22;5100057;28;20032;-85
2022/07/25 06:51:26;;;;;;;12.07;8.43;;;;;;;24.44;47.03;95142.22;5083235;28;20417;-86
2022/07/25 06:53:52;;;;;;;13.13;9.00;;;;;;;25.23;46.96;95256.25;5100545;28;20028;-86
2022/07/25 06:56:18;;;;;;;14.13;9.18;;;;;;;25.17;47.17;95242.22;5081157;28;20529;-85
2022/07/25 06:58:43;;;;;;;14.35;8.63;;;;;;;24.98;47.20;95205.09;5080870;28;20175;-86
2022/07/25 07:01:09;;;;;;;10.88;8.52;;;;;;;24.66;46.85;95151.47;5099759;28;20063;-86
2022/07/25 07:03:37;;;;;;;17.40;9.30;;;;;;;25.40;46.89;95253.03;5081586;28;20046;-86
2022/07/25 07:06:07;;;;;;;12.00;8.63;;;;;;;25.65;46.64;95289.47;5081338;28;20035;-86
2022/07/25 07:08:33;;;;;;;10.50;8.82;;;;;;;25.33;46.50;95231.97;5081265;28;20066;-86
2022/07/25 07:10:58;;;;;;;9.80;8.80;;;;;;;25.41;46.11;95238.28;5080472;28;20050;-86
2022/07/25 07:13:24;;;;;;;13.82;9.68;;;;;;;25.43;46.47;95224.34;5094390;28;20565;-85
2022/07/25 07:15:50;;;;;;;16.10;9.98;;;;;;;25.58;46.44;95250.56;5079760;28;20032;-86
2022/07/25 07:18:16;;;;;;;15.82;9.63;;;;;;;25.38;46.56;95239.81;5084138;28;20035;-85
2022/07/25 07:20:42;;;;;;;12.05;8.68;;;;;;;25.08;46.71;95145.94;5085087;28;20043;-86
2022/07/25 07:23:08;;;;;;;10.90;8.70;;;;;;;25.53;45.66;95218.28;5103357;28;20410;-86
2022/07/25 07:25:34;;;;;;;17.73;9.98;;;;;;;26.00;46.03;95277.53;5086342;28;20039;-86
2022/07/25 07:27:59;;;;;;;15.48;9.70;;;;;;;25.43;45.89;95170.06;5085129;28;20445;-86
2022/07/25 07:30:25;;;;;;;11.68;9.18;;;;;;;26.06;44.66;95263.25;5084512;28;20031;-86
2022/07/25 07:32:50;;;;;;;10.95;8.93;;;;;;;25.87;44.66;95219.91;5084687;28;20043;-86
2022/07/25 07:35:17;;;;;;;9.50;8.30;;;;;;;25.90;44.08;95196.66;5084961;28;20042;-86
2022/07/25 07:37:44;;;;;;;12.38;9.20;;;;;;;26.35;43.23;95261.66;5085033;28;20872;-85
2022/07/25 07:40:11;;;;;;;14.85;9.55;;;;;;;25.57;43.38;95113.22;5084308;28;20418;-86
2022/07/25 07:42:47;;;;;;;15.95;9.45;;;;;;;25.72;43.47;95137.47;5081591;28;20040;-86
2022/07/25 07:45:19;;;;;;;14.68;9.02;;;;;;;26.36;42.98;95217.00;5081366;28;20074;-85
2022/07/25 07:47:47;;;;;;;10.85;8.45;;;;;;;26.26;43.03;95219.59;5080511;28;20040;-86
2022/07/25 07:50:15;;;;;;;14.43;9.25;;;;;;;26.17;42.92;95191.94;5082994;28;20032;-86
2022/07/25 07:52:40;;;;;;;12.13;8.57;;;;;;;26.65;42.99;95258.84;5082805;28;20113;-86
2022/07/25 07:57:50;;;;;;;11.52;8.57;;;;;;;26.30;42.62;95258.50;5097368;28;20072;-86
2022/07/25 08:00:17;;;;;;;12.43;9.27;;;;;;;26.37;42.60;95223.22;5074424;28;20039;-85
2022/07/25 08:02:46;;;;;;;14.63;9.18;;;;;;;26.63;42.48;95273.97;5080739;28;20036;-86
2022/07/25 08:05:19;;;;;;;17.08;8.30;;;;;;;25.87;42.25;95118.63;5081267;28;20040;-85
2022/07/25 08:07:45;;;;;;;16.45;9.13;;;;;;;26.73;42.62;95248.81;5081666;28;20044;-86
2022/07/25 08:10:10;;;;;;;15.75;9.43;;;;;;;26.71;42.36;95223.94;5084518;28;20468;-85
2022/07/25 08:12:39;;;;;;;11.02;9.25;;;;;;;26.83;41.94;95264.47;5084128;28;20036;-85
2022/07/25 08:15:05;;;;;;;11.88;8.77;;;;;;;26.82;41.67;95246.59;5089344;28;20047;-86
2022/07/25 08:17:31;;;;;;;15.13;9.07;;;;;;;26.64;41.90;95213.78;5084366;28;20474;-85
2022/07/25 08:19:56;;;;;;;11.70;8.80;;;;;;;26.64;40.90;95216.50;5082127;28;20464;-85
2022/07/25 08:22:22;;;;;;;14.77;9.38;;;;;;;26.95;40.89;95244.38;5082525;28;20498;-85
2022/07/25 08:24:47;;;;;;;10.07;8.55;;;;;;;26.70;40.41;95236.75;5081298;28;20040;-86
2022/07/25 08:27:12;;;;;;;18.83;8.95;;;;;;;26.74;40.98;95210.38;5100916;28;20108;-85
2022/07/25 08:29:38;;;;;;;11.88;8.75;;;;;;;26.92;41.21;95235.06;5086702;28;20063;-84
2022/07/25 08:32:04;;;;;;;18.50;9.80;;;;;;;26.77;41.33;95195.25;5084594;28;20422;-86
2022/07/25 08:34:29;;;;;;;12.80;8.43;;;;;;;26.40;40.88;95168.09;5095691;28;20032;-85
2022/07/25 08:36:55;;;;;;;12.50;9.60;;;;;;;27.12;40.63;95243.75;5099108;28;20154;-86
2022/07/25 08:39:20;;;;;;;11.10;8.85;;;;;;;26.94;40.32;95224.56;5083681;28;20134;-85
2022/07/25 08:41:46;;;;;;;12.57;8.63;;;;;;;26.81;40.60;95194.09;5102581;28;20027;-86
2022/07/25 08:44:13;;;;;;;14.45;9.13;;;;;;;27.07;40.89;95236.72;5102514;28;20035;-86
2022/07/25 08:46:40;;;;;;;13.52;9.55;;;;;;;26.83;40.56;95170.03;5083121;28;20125;-86
2022/07/25 08:49:06;;;;;;;11.38;9.23;;;;;;;26.67;40.11;95123.28;5101278;28;20032;-85
2022/07/25 08:51:32;;;;;;;10.02;8.00;;;;;;;27.25;39.99;95190.56;5082493;28;20432;-85
2022/07/25 08:53:58;;;;;;;12.02;8.77;;;;;;;27.64;39.88;95204.44;5083723;28;20227;-85
2022/07/25 08:56:24;;;;;;;13.75;9.13;;;;;;;27.32;39.58;95179.69;5082179;28;20168;-85
2022/07/25 08:58:50;;;;;;;10.25;8.77;;;;;;;27.68;39.62;95229.75;5083543;28;20326;-85
2022/07/25 09:01:15;;;;;;;16.70;8.57;;;;;;;27.61;38.69;95195.09;5081134;28;20031;-85
2022/07/25 09:03:42;;;;;;;13.48;9.82;;;;;;;27.50;39.12;95172.41;5083174;28;20440;-85
2022/07/25 09:06:18;;;;;;;12.05;9.20;;;;;;;27.78;39.10;95209.16;5077486;28;20127;-85
2022/07/25 09:08:55;;;;;;;15.55;8.98;;;;;;;27.57;39.11;95160.81;5093640;28;20036;-85
2022/07/25 09:11:30;;;;;;;12.85;8.95;;;;;;;28.04;38.59;95190.59;5081951;28;20054;-85
2022/07/25 09:14:00;;;;;;;13.30;8.90;;;;;;;26.91;38.54;95055.81;5080861;28;20055;-85
2022/07/25 09:16:34;;;;;;;14.00;8.63;;;;;;;27.54;38.72;95153.41;5081447;28;20130;-85
2022/07/25 09:19:12;;;;;;;10.50;8.05;;;;;;;27.74;38.28;95170.22;5083210;28;20043;-85
2022/07/25 09:21:39;;;;;;;10.75;8.30;;;;;;;27.85;38.23;95154.69;5082402;28;20032;-86
2022/07/25 09:24:09;;;;;;;18.60;8.90;;;;;;;28.11;38.92;95227.19;5076680;28;20126;-86
2022/07/25 09:27:09;;;;;;;13.90;8.57;;;;;;;28.14;39.09;95202.69;5062210;28;20358;-85
2022/07/25 09:29:38;;;;;;;10.70;7.75;;;;;;;27.97;37.87;95184.31;5062652;28;20051;-85
2022/07/25 09:32:15;;;;;;;12.30;8.23;;;;;;;27.99;37.72;95180.06;5087844;28;20023;-86
2022/07/25 09:34:44;;;;;;;13.10;8.60;;;;;;;28.30;37.57;95224.19;5080850;28;20493;-85
2022/07/25 09:37:11;;;;;;;13.25;8.38;;;;;;;28.23;37.79;95214.03;5083915;28;20402;-85
2022/07/25 09:39:43;;;;;;;13.63;9.18;;;;;;;28.28;37.13;95218.34;5080571;28;20512;-85
2022/07/25 09:42:15;;;;;;;12.50;8.40;;;;;;;28.33;36.98;95223.41;5056059;28;20048;-85
2022/07/25 09:44:41;;;;;;;17.33;8.77;;;;;;;28.34;37.01;95219.50;5068142;28;20047;-85
2022/07/25 09:47:15;;;;;;;9.35;8.35;;;;;;;28.13;36.99;95157.50;5080872;28;20048;-86
2022/07/25 09:49:45;;;;;;;14.35;8.27;;;;;;;28.11;36.51;95143.47;5062571;28;20044;-85
2022/07/25 09:52:13;;;;;;;11.07;8.20;;;;;;;28.18;36.43;95153.63;5080470;28;20557;-86
2022/07/25 09:54:39;;;;;;;12.75;8.88;;;;;;;28.29;36.35;95151.72;5078733;28;20062;-86
2022/07/25 09:57:05;;;;;;;12.75;7.53;;;;;;;28.67;34.25;95215.69;5061294;28;20043;-86
2022/07/25 09:59:33;;;;;;;11.52;8.20;;;;;;;28.54;34.50;95133.41;5061165;28;20529;-86
2022/07/25 10:02:13;;;;;;;11.93;7.93;;;;;;;29.65;33.51;95183.25;5078495;28;20036;-87
2022/07/25 10:05:10;;;;;;;8.80;7.68;;;;;;;30.30;31.79;95133.34;5062712;28;20131;-86
2022/07/25 10:07:38;;;;;;;7.85;6.95;;;;;;;31.78;30.15;95201.75;5051443;28;20441;-86
2022/07/25 10:10:05;;;;;;;12.30;7.20;;;;;;;31.68;28.21;95107.47;5065635;28;20356;-86
2022/07/25 10:12:32;;;;;;;10.90;6.45;;;;;;;33.04;27.20;95177.66;5101024;28;20039;-86
2022/07/25 10:15:09;;;;;;;8.27;6.97;;;;;;;33.75;26.64;95146.19;5101403;28;20031;-85
2022/07/25 10:17:36;;;;;;;10.50;6.50;;;;;;;34.68;25.73;95124.50;5085190;28;20116;-84
2022/07/25 10:20:05;;;;;;;7.13;5.95;;;;;;;33.39;25.78;95003.16;5097187;28;20035;-85
2022/07/25 10:22:43;;;;;;;10.05;7.00;;;;;;;34.07;26.94;95188.34;5089046;28;20411;-85
2022/07/25 10:25:15;;;;;;;8.50;6.93;;;;;;;33.24;27.65;95151.06;5081801;28;20125;-85
2022/07/25 10:27:43;;;;;;;7.55;6.10;;;;;;;32.83;27.72;95157.59;5101091;28;20177;-85
2022/07/25 10:30:36;;;;;;;6.93;6.22;;;;;;;33.33;26.90;95196.06;5081600;28;20062;-86
2022/07/25 10:33:13;;;;;;;7.32;6.20;;;;;;;33.26;26.63;95165.16;5078702;28;20433;-86
2022/07/25 10:35:39;;;;;;;8.70;5.72;;;;;;;33.49;25.79;95129.38;5081453;28;20126;-86
2022/07/25 10:38:05;;;;;;;10.15;6.90;;;;;;;34.52;25.48;95173.25;5080964;28;20119;-86
2022/07/25 10:40:38;;;;;;;7.95;6.30;;;;;;;34.96;24.86;95160.81;5082439;28;20036;-86
2022/07/25 10:43:20;;;;;;;8.98;7.15;;;;;;;34.66;24.42;95129.66;5099820;28;20875;-87
2022/07/25 10:45:52;;;;;;;10.77;6.95;;;;;;;35.28;24.15;95173.84;5081905;28;20651;-86
2022/07/25 10:48:26;;;;;;;9.80;6.22;;;;;;;34.62;24.43;95164.00;5100003;28;20462;-87
2022/07/25 10:51:00;;;;;;;6.38;5.72;;;;;;;34.79;24.70;95168.31;5103781;28;20027;-86
2022/07/25 10:53:31;;;;;;;8.35;6.25;;;;;;;34.83;24.00;95169.78;5084005;28;20132;-86
2022/07/25 10:56:05;;;;;;;10.18;6.13;;;;;;;33.84;25.09;95155.44;5064794;28;20036;-86
2022/07/25 10:58:59;;;;;;;8.13;5.88;;;;;;;33.44;25.59;95176.59;5084378;28;20507;-86
2022/07/25 11:01:35;;;;;;;7.47;5.40;;;;;;;33.04;25.86;95169.44;5065256;28;20123;-86
2022/07/25 11:04:05;;;;;;;6.57;5.78;;;;;;;33.33;25.50;95154.81;5065532;28;20051;-86
2022/07/25 11:06:41;;;;;;;5.78;5.20;;;;;;;33.76;24.18;95153.25;5083233;28;20126;-84
2022/07/25 11:09:14;;;;;;;9.77;6.20;;;;;;;33.67;23.57;95093.28;5082866;28;20040;-85
2022/07/25 11:11:46;;;;;;;7.70;5.45;;;;;;;34.27;23.93;95144.31;5063666;28;20501;-85
2022/07/25 11:14:19;;;;;;;7.18;6.03;;;;;;;34.99;23.23;95144.22;5064743;28;20110;-85
2022/07/25 11:16:47;;;;;;;7.60;5.57;;;;;;;34.89;23.53;95119.69;5083107;28;20048;-85
2022/07/25 11:19:28;;;;;;;10.15;5.85;;;;;;;33.58;24.03;94970.13;5064121;28;20043;-86
2022/07/25 11:21:57;;;;;;;8.30;5.68;;;;;;;34.23;24.29;95142.84;5082049;28;20075;-85
2022/07/25 11:24:39;;;;;;;7.35;6.18;;;;;;;33.90;24.57;95139.97;5065229;28;20089;-86